createdAt,value
2022-12-12T00:02:42.133Z,6.10
2022-12-12T00:06:44.026Z,4.80
2022-12-12T00:10:45.832Z,5.60
2022-12-12T00:14:47.705Z,4.97
2022-12-12T00:18:49.639Z,4.22
2022-12-12T00:22:51.634Z,5.70
2022-12-12T00:26:53.379Z,4.65
2022-12-12T00:30:55.423Z,5.00
2022-12-12T00:34:57.216Z,3.58
2022-12-12T00:38:59.424Z,4.03
2022-12-12T00:43:01.357Z,3.75
2022-12-12T00:47:03.245Z,4.95
2022-12-12T00:51:09.352Z,4.28
2022-12-12T00:55:13.060Z,4.53
2022-12-12T00:59:15.133Z,3.50
2022-12-12T01:03:19.332Z,3.72
2022-12-12T01:07:21.584Z,4.63
2022-12-12T01:11:23.931Z,3.28
2022-12-12T01:15:26.448Z,4.60
2022-12-12T01:19:28.205Z,4.50
2022-12-12T01:23:30.100Z,5.88
2022-12-12T01:27:32.386Z,4.80
2022-12-12T01:31:34.364Z,5.10
2022-12-12T01:35:36.143Z,5.88
2022-12-12T01:39:37.875Z,5.93
2022-12-12T01:43:39.777Z,6.00
2022-12-12T01:47:41.532Z,5.40
2022-12-12T01:51:45.367Z,6.20
2022-12-12T01:55:49.464Z,5.80
2022-12-12T01:59:51.496Z,5.32
2022-12-12T02:03:53.709Z,6.45
2022-12-12T02:07:57.174Z,5.93
2022-12-12T02:11:59.361Z,6.07
2022-12-12T02:16:25.771Z,6.43
2022-12-12T02:20:45.780Z,5.93
2022-12-12T02:24:59.392Z,7.10
2022-12-12T02:29:25.745Z,5.40
2022-12-12T02:33:56.805Z,5.20
2022-12-12T02:38:25.897Z,5.95
2022-12-12T02:42:38.803Z,4.63
2022-12-12T02:47:07.606Z,5.22
2022-12-12T02:56:51.732Z,6.07
2022-12-12T03:01:24.634Z,6.15
2022-12-12T03:06:20.437Z,5.55
2022-12-12T03:10:54.595Z,5.72
2022-12-12T03:15:05.848Z,5.72
2022-12-12T03:19:13.746Z,4.97
2022-12-12T03:23:18.433Z,5.30
2022-12-12T03:27:27.489Z,4.95
2022-12-12T03:31:32.538Z,4.90
2022-12-12T03:35:39.895Z,5.68
2022-12-12T03:39:54.944Z,4.95
2022-12-12T03:44:16.515Z,4.25
2022-12-12T03:48:29.411Z,4.20
2022-12-12T03:52:42.056Z,5.60
2022-12-12T03:56:58.426Z,5.65
2022-12-12T04:01:04.709Z,5.75
2022-12-12T04:05:37.512Z,6.28
2022-12-12T04:09:58.059Z,8.18
2022-12-12T04:14:17.063Z,6.40
2022-12-12T04:18:37.066Z,5.85
2022-12-12T04:23:03.792Z,5.78
2022-12-12T04:27:16.054Z,7.97
2022-12-12T04:31:20.010Z,6.75
2022-12-12T04:35:33.524Z,5.93
2022-12-12T04:39:38.390Z,6.03
2022-12-12T04:43:43.399Z,5.88
2022-12-12T04:47:49.481Z,5.82
2022-12-12T04:51:55.939Z,6.22
2022-12-12T04:55:59.915Z,4.80
2022-12-12T05:00:01.923Z,4.90
2022-12-12T05:04:11.769Z,4.85
2022-12-12T05:08:21.973Z,4.30
2022-12-12T05:12:24.860Z,7.70
2022-12-12T05:16:40.538Z,6.05
2022-12-12T05:20:42.470Z,4.72
2022-12-12T05:24:44.219Z,4.60
2022-12-12T05:28:46.203Z,5.97
2022-12-12T05:32:48.627Z,4.03
2022-12-12T05:36:50.350Z,5.70
2022-12-12T05:40:52.099Z,4.75
2022-12-12T05:44:53.824Z,5.15
2022-12-12T05:48:55.836Z,4.07
2022-12-12T05:52:57.572Z,5.25
2022-12-12T05:56:59.285Z,5.40
2022-12-12T06:01:04.091Z,4.10
2022-12-12T06:05:06.162Z,5.95
2022-12-12T06:09:08.141Z,5.30
2022-12-12T06:13:09.968Z,5.20
2022-12-12T06:17:11.698Z,7.03
2022-12-12T06:21:13.473Z,5.35
2022-12-12T06:25:15.605Z,6.00
2022-12-12T06:29:17.586Z,6.20
2022-12-12T06:33:19.318Z,7.93
2022-12-12T06:37:21.228Z,10.60
2022-12-12T06:41:24.922Z,8.32
2022-12-12T06:45:26.730Z,12.27
2022-12-12T06:49:28.543Z,5.90
2022-12-12T06:53:30.316Z,7.45
2022-12-12T06:57:32.031Z,5.43
2022-12-12T07:01:33.854Z,4.38
2022-12-12T07:05:35.680Z,5.47
2022-12-12T07:09:37.412Z,5.28
2022-12-12T07:13:39.241Z,6.75
2022-12-12T07:17:40.998Z,7.40
2022-12-12T07:21:42.749Z,7.00
2022-12-12T07:25:45.039Z,7.30
2022-12-12T07:29:47.028Z,5.90
2022-12-12T07:33:48.950Z,6.55
2022-12-12T07:37:50.725Z,5.90
2022-12-12T07:41:52.484Z,7.03
2022-12-12T07:45:56.370Z,5.65
2022-12-12T07:49:58.097Z,6.30
2022-12-12T07:53:59.909Z,6.35
2022-12-12T07:58:01.635Z,5.70
2022-12-12T08:02:03.781Z,5.05
2022-12-12T08:06:07.014Z,5.68
2022-12-12T08:10:09.719Z,6.15
2022-12-12T08:14:13.281Z,5.82
2022-12-12T08:18:15.284Z,5.53
2022-12-12T08:22:17.398Z,5.78
2022-12-12T08:26:19.636Z,5.18
2022-12-12T08:30:21.990Z,5.93
2022-12-12T08:34:23.882Z,5.63
2022-12-12T08:38:25.907Z,5.82
2022-12-12T08:42:27.620Z,5.65
2022-12-12T08:46:29.832Z,5.93
2022-12-12T08:50:31.593Z,6.15
2022-12-12T08:54:33.325Z,5.85
2022-12-12T08:58:35.072Z,5.32
2022-12-12T09:02:37.306Z,5.70
2022-12-12T09:06:39.181Z,4.32
2022-12-12T09:10:42.306Z,5.07
2022-12-12T09:14:44.066Z,4.75
2022-12-12T09:18:49.084Z,5.55
2022-12-12T09:22:51.310Z,5.22
2022-12-12T09:26:53.050Z,5.22
2022-12-12T09:30:55.108Z,5.22
2022-12-12T09:34:56.903Z,4.53
2022-12-12T09:38:58.648Z,4.00
2022-12-12T09:43:01.018Z,3.70
2022-12-12T09:47:08.621Z,4.40
2022-12-12T09:51:11.476Z,4.03
2022-12-12T09:55:22.146Z,5.05
2022-12-12T09:59:54.587Z,4.57
2022-12-12T10:04:04.781Z,4.45
2022-12-12T10:08:21.609Z,4.45
2022-12-12T10:12:23.638Z,4.50
2022-12-12T10:16:26.547Z,4.90
2022-12-12T10:20:31.861Z,4.75
2022-12-12T10:24:39.608Z,4.82
2022-12-12T10:28:41.402Z,4.90
2022-12-12T10:32:46.018Z,5.60
2022-12-12T10:37:06.213Z,5.85
2022-12-12T10:41:17.318Z,4.72
2022-12-12T10:45:45.676Z,6.47
2022-12-12T10:49:47.792Z,5.47
2022-12-12T10:53:49.939Z,5.13
2022-12-12T10:58:04.204Z,5.45
2022-12-12T11:02:20.422Z,5.28
2022-12-12T11:06:43.945Z,5.90
2022-12-12T11:10:45.710Z,6.80
2022-12-12T11:15:02.181Z,6.43
2022-12-12T11:19:16.795Z,6.20
2022-12-12T11:23:21.181Z,6.72
2022-12-12T11:27:28.795Z,5.20
2022-12-12T11:31:34.242Z,6.40
2022-12-12T11:35:43.903Z,6.97
2022-12-12T11:39:51.912Z,7.32
2022-12-12T11:43:58.037Z,6.25
2022-12-12T11:47:59.779Z,6.07
2022-12-12T11:52:19.003Z,5.55
2022-12-12T11:56:38.896Z,6.20
2022-12-12T12:01:06.050Z,5.63
2022-12-12T12:05:38.069Z,6.32
2022-12-12T12:10:24.247Z,6.30
2022-12-12T12:14:32.338Z,6.38
2022-12-12T12:19:02.911Z,6.22
2022-12-12T12:23:14.086Z,5.50
2022-12-12T12:27:31.897Z,5.78
2022-12-12T12:32:12.075Z,6.90
2022-12-12T12:36:25.089Z,5.75
2022-12-12T12:40:46.152Z,5.70
2022-12-12T12:44:55.154Z,5.65
2022-12-12T12:49:05.029Z,5.43
2022-12-12T12:53:22.345Z,6.18
2022-12-12T12:57:33.214Z,5.93
2022-12-12T13:01:44.929Z,5.50
2022-12-12T13:06:01.432Z,6.18
2022-12-12T13:10:14.889Z,6.65
2022-12-12T13:14:23.300Z,7.88
2022-12-12T13:18:33.473Z,7.38
2022-12-12T13:22:46.118Z,7.70
2022-12-12T13:27:13.165Z,7.50
2022-12-12T13:31:30.344Z,8.23
2022-12-12T13:35:37.955Z,7.90
2022-12-12T13:39:39.721Z,8.10
2022-12-12T13:43:48.034Z,8.23
2022-12-12T13:47:50.902Z,7.28
2022-12-12T13:52:12.558Z,8.00
2022-12-12T13:56:45.795Z,6.18
2022-12-12T14:00:47.933Z,6.75
2022-12-12T14:05:10.585Z,7.25
2022-12-12T14:09:22.026Z,6.90
2022-12-12T14:13:23.851Z,6.00
2022-12-12T14:17:28.089Z,6.40
2022-12-12T14:21:45.654Z,5.82
2022-12-12T14:25:47.912Z,5.63
2022-12-12T14:29:49.624Z,5.38
2022-12-12T14:33:54.339Z,5.15
2022-12-12T14:38:33.412Z,5.25
2022-12-12T14:43:19.035Z,4.00
2022-12-12T14:47:08.370Z,4.88
2022-12-12T14:51:25.862Z,4.28
2022-12-12T14:55:31.999Z,4.22
2022-12-12T14:59:39.225Z,4.00
2022-12-12T15:03:49.543Z,4.03
2022-12-12T15:07:58.945Z,3.25
2022-12-12T15:12:09.874Z,2.67
2022-12-12T15:16:11.647Z,2.78
2022-12-12T15:20:25.642Z,3.20
2022-12-12T15:24:39.158Z,2.80
2022-12-12T15:28:44.826Z,3.22
2022-12-12T15:32:48.270Z,2.90
2022-12-12T15:36:50.060Z,2.50
2022-12-12T15:40:54.380Z,2.88
2022-12-12T15:44:56.736Z,3.10
2022-12-12T15:48:58.726Z,4.13
2022-12-12T15:53:23.529Z,3.40
2022-12-12T15:57:29.052Z,3.83
2022-12-12T16:01:31.030Z,3.20
2022-12-12T16:05:39.176Z,2.60
2022-12-12T16:09:57.693Z,2.53
2022-12-12T16:14:00.125Z,2.65
2022-12-12T16:18:13.800Z,2.75
2022-12-12T16:22:33.722Z,3.78
2022-12-12T16:26:35.444Z,3.85
2022-12-12T16:30:39.550Z,3.55
2022-12-12T16:34:42.045Z,2.63
2022-12-12T16:38:43.918Z,3.20
2022-12-12T16:43:01.144Z,2.92
2022-12-12T16:47:14.404Z,3.20
2022-12-12T16:51:20.607Z,2.97
2022-12-12T16:55:24.086Z,2.15
2022-12-12T16:59:25.836Z,3.08
2022-12-12T17:03:27.566Z,2.90
2022-12-12T17:07:29.328Z,2.70
2022-12-12T17:11:31.037Z,2.92
2022-12-12T17:15:33.155Z,6.10
2022-12-12T17:19:34.956Z,3.55
2022-12-12T17:23:36.870Z,4.47
2022-12-12T17:27:39.532Z,3.28
2022-12-12T17:31:41.377Z,3.70
2022-12-12T17:35:44.266Z,3.90
2022-12-12T17:39:46.082Z,3.88
2022-12-12T17:43:53.677Z,3.70
2022-12-12T17:47:58.131Z,3.58
2022-12-12T17:51:59.898Z,3.83
2022-12-12T17:56:07.805Z,3.80
2022-12-12T18:00:11.767Z,3.53
2022-12-12T18:04:16.543Z,4.63
2022-12-12T18:08:18.413Z,4.10
2022-12-12T18:12:20.194Z,3.58
2022-12-12T18:16:23.831Z,3.80
2022-12-12T18:20:30.988Z,3.95
2022-12-12T18:24:33.318Z,7.20
2022-12-12T18:28:35.681Z,5.10
2022-12-12T18:32:37.501Z,9.65
2022-12-12T18:36:39.645Z,9.00
2022-12-12T18:40:41.429Z,9.52
2022-12-12T18:44:43.149Z,7.40
2022-12-12T18:48:46.804Z,8.98
2022-12-12T18:52:48.623Z,7.13
2022-12-12T18:56:50.438Z,5.47
2022-12-12T19:00:52.307Z,5.97
2022-12-12T19:04:54.374Z,5.60
2022-12-12T19:08:57.524Z,8.25
2022-12-12T19:12:59.245Z,8.30
2022-12-12T19:17:00.996Z,9.25
2022-12-12T19:21:07.960Z,7.88
2022-12-12T19:25:09.829Z,5.38
2022-12-12T19:29:17.188Z,5.75
2022-12-12T19:33:19.019Z,5.20
2022-12-12T19:37:20.903Z,4.45
2022-12-12T19:41:23.385Z,5.88
2022-12-12T19:45:25.197Z,4.25
2022-12-12T19:49:27.389Z,4.25
2022-12-12T19:53:29.385Z,3.08
2022-12-12T19:57:31.183Z,4.03
2022-12-12T20:01:35.467Z,5.82
2022-12-12T20:05:37.297Z,6.35
2022-12-12T20:09:39.056Z,5.00
2022-12-12T20:13:41.615Z,6.15
2022-12-12T20:17:44.647Z,5.65
2022-12-12T20:22:04.072Z,4.60
2022-12-12T20:26:08.910Z,5.03
2022-12-12T20:30:12.577Z,4.10
2022-12-12T20:34:16.615Z,5.60
2022-12-12T20:38:18.368Z,7.50
2022-12-12T20:42:20.091Z,6.80
2022-12-12T20:46:24.765Z,6.13
2022-12-12T20:50:26.553Z,13.27
2022-12-12T20:54:29.526Z,5.28
2022-12-12T20:58:31.731Z,4.72
2022-12-12T21:02:33.803Z,4.75
2022-12-12T21:06:38.679Z,7.18
2022-12-12T21:10:40.420Z,8.40
2022-12-12T21:14:42.164Z,7.50
2022-12-12T21:18:43.905Z,8.30
2022-12-12T21:22:45.643Z,7.03
2022-12-12T21:26:47.440Z,7.25
2022-12-12T21:30:49.184Z,6.88
2022-12-12T21:34:51.026Z,8.20
2022-12-12T21:38:53.503Z,5.78
2022-12-12T21:42:55.310Z,5.70
2022-12-12T21:46:57.149Z,6.70
2022-12-12T21:51:05.992Z,6.00
2022-12-12T21:55:08.126Z,7.25
2022-12-12T21:59:11.699Z,6.78
2022-12-12T22:03:13.535Z,5.18
2022-12-12T22:07:15.346Z,5.13
2022-12-12T22:11:33.840Z,6.28
2022-12-12T22:15:40.766Z,7.00
2022-12-12T22:19:43.769Z,5.88
2022-12-12T22:23:47.471Z,4.90
2022-12-12T22:27:49.180Z,4.10
2022-12-12T22:31:52.423Z,6.90
2022-12-12T22:35:54.723Z,6.63
2022-12-12T22:39:56.435Z,4.07
2022-12-12T22:44:00.533Z,4.85
2022-12-12T22:48:02.245Z,5.80
2022-12-12T22:52:04.177Z,4.68
2022-12-12T22:56:05.911Z,3.95
2022-12-12T23:00:10.459Z,4.47
2022-12-12T23:04:13.848Z,4.60
2022-12-12T23:08:15.707Z,5.32
2022-12-12T23:12:17.525Z,5.25
2022-12-12T23:16:21.092Z,5.43
2022-12-12T23:20:22.889Z,4.93
2022-12-12T23:24:24.631Z,6.13
2022-12-12T23:28:26.395Z,4.28
2022-12-12T23:32:28.134Z,4.50
2022-12-12T23:36:30.451Z,4.60
2022-12-12T23:40:34.112Z,5.50
2022-12-12T23:44:35.839Z,5.60
2022-12-12T23:48:37.584Z,4.32
2022-12-12T23:52:39.313Z,5.15
2022-12-12T23:56:41.668Z,6.72
